Time;durP1;ratioP1;P1;durP2;ratioP2;P2;SDS_P1;SDS_P2;PMS_P1;PMS_P2;Temp;Humidity;BMP_temperature;BMP_pressure;BME280_temperature;BME280_humidity;BME280_pressure;Samples;Min_cycle;Max_cycle;Signal;HPM_P1;HPM_P2
2022/01/17 00:01:46;;;;;;;15.98;2.65;;;;;;;6.81;77.34;103031.47;5055057;28;20073;-65
2022/01/17 00:04:12;;;;;;;18.95;2.33;;;;;;;6.78;75.25;103025.63;5057009;28;20025;-66
2022/01/17 00:06:39;;;;;;;18.23;2.28;;;;;;;6.78;77.36;103028.19;5056954;28;20025;-66
2022/01/17 00:09:05;;;;;;;12.82;2.33;;;;;;;6.66;79.98;103030.81;5056377;28;20021;-66
2022/01/17 00:11:31;;;;;;;11.25;2.00;;;;;;;6.65;78.64;103032.56;5056307;28;20369;-66
2022/01/17 00:13:57;;;;;;;11.20;1.88;;;;;;;6.72;78.83;103035.50;5038557;28;20021;-66
2022/01/17 00:16:32;;;;;;;14.68;2.22;;;;;;;6.78;77.52;103047.94;5056365;28;20073;-66
2022/01/17 00:21:46;;;;;;;22.58;2.58;;;;;;;6.71;78.35;103050.13;5027503;28;20039;-67
2022/01/17 00:24:12;;;;;;;22.67;3.10;;;;;;;6.53;79.15;103046.22;5056061;28;20459;-67
2022/01/17 00:26:37;;;;;;;15.75;1.95;;;;;;;6.58;78.88;103044.16;5056176;28;20036;-66
2022/01/17 00:29:02;;;;;;;14.15;2.00;;;;;;;6.57;78.12;103032.25;5056393;28;20009;-67
2022/01/17 00:31:28;;;;;;;14.57;2.17;;;;;;;6.65;79.64;103039.44;5038536;28;20024;-67
2022/01/17 00:33:53;;;;;;;13.43;2.47;;;;;;;6.68;77.40;103041.81;5038653;28;20444;-67
2022/01/17 00:36:18;;;;;;;12.38;2.30;;;;;;;6.75;78.15;103032.72;5058991;28;20032;-69
2022/01/17 00:38:44;;;;;;;16.42;2.10;;;;;;;6.75;77.40;103050.72;5061438;28;20108;-70
2022/01/17 00:41:09;;;;;;;14.95;2.25;;;;;;;6.70;77.56;103047.63;5064565;28;20089;-67
2022/01/17 00:43:35;;;;;;;10.68;1.98;;;;;;;6.67;78.25;103053.00;5064722;28;20058;-70
2022/01/17 00:46:00;;;;;;;14.18;2.15;;;;;;;6.62;78.13;103047.34;5064944;28;20025;-69
2022/01/17 00:48:26;;;;;;;19.83;2.20;;;;;;;6.55;78.44;103037.47;5048353;28;20025;-68
2022/01/17 00:50:51;;;;;;;13.00;2.30;;;;;;;6.45;77.20;102999.72;5046839;28;20032;-69
2022/01/17 00:53:16;;;;;;;14.23;1.90;;;;;;;6.55;76.27;103034.09;5063443;28;20045;-70
2022/01/17 00:55:42;;;;;;;16.75;2.25;;;;;;;6.60;76.38;103032.03;5062828;28;20025;-69
2022/01/17 00:58:07;;;;;;;15.27;1.98;;;;;;;6.57;77.77;103029.69;5039779;28;20063;-65
2022/01/17 01:00:33;;;;;;;14.25;2.13;;;;;;;6.57;77.79;103021.16;5057785;28;20021;-65
2022/01/17 01:02:58;;;;;;;18.25;2.20;;;;;;;6.53;78.05;103030.81;5058287;28;20025;-68
2022/01/17 01:05:24;;;;;;;16.10;2.13;;;;;;;6.29;78.03;103005.88;5057234;28;20032;-70
2022/01/17 01:07:50;;;;;;;13.13;2.03;;;;;;;6.47;78.14;103031.22;5056405;28;20076;-67
2022/01/17 01:10:15;;;;;;;16.38;2.05;;;;;;;6.59;78.12;103042.41;5039020;28;20021;-66
2022/01/17 01:12:44;;;;;;;19.23;2.35;;;;;;;6.41;77.79;103050.44;5055959;28;20028;-66
2022/01/17 01:15:13;;;;;;;17.52;2.72;;;;;;;6.22;78.11;103034.66;5056166;28;20032;-69
2022/01/17 01:17:52;;;;;;;14.85;1.70;;;;;;;6.49;76.62;103062.78;5055547;28;20437;-67
2022/01/17 01:28:21;;;;;;;16.27;2.40;;;;;;;6.32;76.41;103056.22;5055595;28;20046;-66
2022/01/17 01:30:50;;;;;;;19.10;2.15;;;;;;;6.26;76.41;103064.31;5054855;28;20092;-69
2022/01/17 01:33:23;;;;;;;23.70;2.78;;;;;;;6.33;77.08;103068.16;5054786;28;20049;-66
2022/01/17 01:35:49;;;;;;;16.85;2.08;;;;;;;6.31;76.78;103063.09;5055051;28;20035;-66
2022/01/17 01:38:14;;;;;;;16.10;1.85;;;;;;;6.35;77.78;103079.13;5036774;28;20471;-67
2022/01/17 01:40:40;;;;;;;12.48;2.17;;;;;;;6.26;78.39;103072.84;5054540;28;20091;-66
2022/01/17 01:43:05;;;;;;;15.55;1.88;;;;;;;6.35;78.31;103079.13;5054572;28;20025;-67
2022/01/17 01:45:30;;;;;;;23.90;2.00;;;;;;;6.36;78.48;103067.94;5054472;28;20056;-67
2022/01/17 01:47:56;;;;;;;15.68;1.85;;;;;;;6.05;78.76;103030.66;5055075;28;20114;-66
2022/01/17 01:50:22;;;;;;;17.55;2.20;;;;;;;6.29;78.48;103070.06;5054453;28;20133;-66
2022/01/17 01:52:48;;;;;;;17.30;2.97;;;;;;;6.35;77.09;103060.31;5054221;28;20056;-66
2022/01/17 01:55:17;;;;;;;12.63;2.22;;;;;;;6.35;76.86;103065.47;5054290;28;20382;-66
2022/01/17 01:57:43;;;;;;;20.63;2.40;;;;;;;6.29;77.60;103056.41;5054322;28;20029;-66
2022/01/17 02:00:11;;;;;;;12.85;2.20;;;;;;;6.25;77.40;103065.25;5036408;28;20023;-66
2022/01/17 02:02:36;;;;;;;15.55;2.00;;;;;;;5.92;78.95;103053.69;5054660;28;20075;-67
2022/01/17 02:05:04;;;;;;;18.55;2.30;;;;;;;5.84;79.48;103051.63;5036348;28;20024;-66
2022/01/17 02:07:29;;;;;;;15.10;2.25;;;;;;;5.81;79.36;103054.41;5054113;28;20029;-66
2022/01/17 02:09:55;;;;;;;15.32;1.85;;;;;;;5.73;79.58;103054.06;5036248;28;20025;-66
2022/01/17 02:12:21;;;;;;;16.48;2.28;;;;;;;5.61;81.29;103050.56;5054117;28;20432;-66
2022/01/17 02:14:48;;;;;;;13.60;1.98;;;;;;;5.40;81.08;103024.53;5053959;28;20052;-66
2022/01/17 02:17:14;;;;;;;14.10;2.47;;;;;;;5.56;81.21;103067.16;5036060;28;20032;-66
2022/01/17 02:19:45;;;;;;;19.98;2.47;;;;;;;5.56;81.21;103074.88;5053812;28;20380;-66
2022/01/17 02:22:11;;;;;;;16.25;2.30;;;;;;;5.49;81.13;103071.84;5036115;28;20032;-66
2022/01/17 02:24:36;;;;;;;20.98;2.78;;;;;;;5.32;82.55;103075.50;5053578;28;20029;-66
2022/01/17 02:27:02;;;;;;;15.32;2.22;;;;;;;5.37;82.25;103088.81;5053830;28;20029;-66
2022/01/17 02:29:29;;;;;;;10.38;2.15;;;;;;;5.33;82.26;103095.06;5035874;28;20058;-66
2022/01/17 02:31:55;;;;;;;15.45;1.60;;;;;;;5.23;82.95;103073.47;5035868;28;20051;-66
2022/01/17 02:34:20;;;;;;;20.38;2.20;;;;;;;5.20;82.48;103082.19;5053753;28;20460;-67
2022/01/17 02:36:45;;;;;;;13.70;2.15;;;;;;;5.18;81.73;103084.03;5035751;28;20021;-66
2022/01/17 02:39:12;;;;;;;15.38;2.00;;;;;;;5.21;81.74;103080.47;5035627;28;20387;-66
2022/01/17 02:41:39;;;;;;;19.05;2.45;;;;;;;5.13;82.50;103078.38;5053834;28;20044;-66
2022/01/17 02:44:05;;;;;;;15.73;2.00;;;;;;;5.07;82.43;103076.19;5053969;28;20020;-66
2022/01/17 02:46:31;;;;;;;14.40;2.38;;;;;;;5.08;83.42;103077.00;5035617;28;20468;-66
2022/01/17 02:49:00;;;;;;;12.32;2.03;;;;;;;4.99;82.33;103068.16;5053498;28;20066;-65
2022/01/17 02:51:27;;;;;;;12.45;2.10;;;;;;;5.07;82.09;103063.38;5053065;28;20053;-66
2022/01/17 02:53:53;;;;;;;16.27;2.40;;;;;;;4.89;82.94;103060.22;5052497;28;20033;-66
2022/01/17 02:56:19;;;;;;;18.25;2.13;;;;;;;5.01;82.63;103063.75;5052601;28;20406;-66
2022/01/17 02:58:45;;;;;;;13.40;2.28;;;;;;;4.89;83.28;103049.09;5052543;28;20036;-66
2022/01/17 03:01:15;;;;;;;13.75;2.10;;;;;;;4.81;84.20;103048.78;5054010;28;20139;-66
2022/01/17 03:03:42;;;;;;;16.42;2.50;;;;;;;4.83;83.61;103054.63;5053345;28;20033;-66
2022/01/17 03:06:08;;;;;;;12.35;1.77;;;;;;;4.81;83.52;103066.72;5035433;28;20028;-66
2022/01/17 03:08:34;;;;;;;16.25;1.95;;;;;;;4.75;83.68;103060.22;5053522;28;20087;-66
2022/01/17 03:11:05;;;;;;;11.43;1.73;;;;;;;4.78;83.15;103067.72;5053184;28;20025;-66
2022/01/17 03:13:33;;;;;;;14.23;2.20;;;;;;;4.85;83.35;103068.97;5053452;28;20142;-66
2022/01/17 03:16:01;;;;;;;12.88;2.00;;;;;;;4.81;84.15;103052.16;5053168;28;20029;-66
2022/01/17 03:18:29;;;;;;;12.20;1.85;;;;;;;4.79;83.88;103064.22;5034772;28;20021;-66
2022/01/17 03:20:55;;;;;;;16.40;3.22;;;;;;;4.75;83.90;103065.34;5053014;28;20112;-66
2022/01/17 03:23:21;;;;;;;14.40;1.70;;;;;;;4.79;83.09;103064.22;5053042;28;20475;-66
2022/01/17 03:25:46;;;;;;;11.85;2.25;;;;;;;4.71;83.57;103063.88;5035235;28;20036;-66
2022/01/17 03:28:12;;;;;;;20.58;2.10;;;;;;;4.63;84.52;103059.22;5035272;28;20479;-66
2022/01/17 03:30:37;;;;;;;20.00;1.92;;;;;;;4.62;85.13;103067.00;5052989;28;20021;-66
2022/01/17 03:33:08;;;;;;;11.00;1.75;;;;;;;4.45;85.26;103025.28;5052983;28;20029;-66
2022/01/17 03:35:38;;;;;;;13.43;1.88;;;;;;;4.66;84.82;103063.31;5035763;28;20029;-66
2022/01/17 03:38:03;;;;;;;15.50;1.83;;;;;;;4.57;85.71;103061.31;5038973;28;20391;-66
2022/01/17 03:40:28;;;;;;;15.20;1.80;;;;;;;4.65;nan;103074.47;5056810;28;20020;-66
2022/01/17 03:42:54;;;;;;;16.90;2.53;;;;;;;4.58;86.17;103053.56;5056963;28;20057;-66
2022/01/17 03:45:20;;;;;;;15.25;1.83;;;;;;;4.49;87.07;103064.34;5056742;28;20029;-66
2022/01/17 03:47:48;;;;;;;11.90;2.05;;;;;;;4.45;86.15;103063.69;5056762;28;20032;-66
2022/01/17 03:50:16;;;;;;;14.20;1.98;;;;;;;4.56;86.42;103064.78;5038979;28;20356;-66
2022/01/17 03:52:42;;;;;;;22.58;2.30;;;;;;;4.43;87.11;103073.22;5056407;28;20136;-66
2022/01/17 03:55:14;;;;;;;12.82;1.80;;;;;;;4.37;88.11;103073.53;5056587;28;20064;-66
2022/01/17 03:57:43;;;;;;;15.88;2.17;;;;;;;4.44;88.42;103079.97;5056907;28;20032;-66
2022/01/17 04:00:12;;;;;;;12.40;1.90;;;;;;;4.48;87.90;103078.88;5056501;28;20471;-66
2022/01/17 04:02:37;;;;;;;11.60;1.95;;;;;;;4.52;88.70;103082.09;5038558;28;20387;-66
2022/01/17 04:05:03;;;;;;;14.77;2.50;;;;;;;4.62;87.88;103088.28;5056412;28;20024;-67
2022/01/17 04:07:28;;;;;;;14.48;2.20;;;;;;;4.52;88.41;103092.34;5056377;28;20025;-66
2022/01/17 04:09:53;;;;;;;7.97;1.67;;;;;;;4.24;89.72;103057.28;5038470;28;20477;-66
2022/01/17 04:12:18;;;;;;;20.15;2.75;;;;;;;4.40;89.68;103098.16;5056363;28;20118;-66
2022/01/17 04:14:44;;;;;;;18.25;2.75;;;;;;;4.19;90.51;103077.19;5056226;28;20020;-66
2022/01/17 04:17:09;;;;;;;14.18;2.20;;;;;;;4.44;90.43;103115.00;5056227;28;20033;-66
2022/01/17 04:19:34;;;;;;;16.17;2.50;;;;;;;4.55;90.11;103109.25;5056388;28;20021;-66
2022/01/17 04:22:00;;;;;;;15.35;2.20;;;;;;;4.55;90.29;103099.84;5056124;28;20082;-66
2022/01/17 04:24:26;;;;;;;20.33;2.42;;;;;;;4.49;90.41;103090.78;5038166;28;20031;-66
2022/01/17 04:26:51;;;;;;;18.38;3.20;;;;;;;4.44;90.69;103087.66;5056030;28;20025;-66
2022/01/17 04:29:17;;;;;;;16.98;2.80;;;;;;;4.48;90.74;103086.53;5056303;28;20052;-66
2022/01/17 04:31:42;;;;;;;12.85;1.92;;;;;;;4.46;91.18;103096.06;5055938;28;20052;-66
2022/01/17 04:34:08;;;;;;;14.75;2.25;;;;;;;4.48;91.06;103106.22;5056476;28;20071;-66
2022/01/17 04:36:33;;;;;;;17.90;2.42;;;;;;;4.46;90.97;103114.00;5055811;28;20020;-66
2022/01/17 04:38:58;;;;;;;13.00;2.22;;;;;;;4.44;91.07;103105.56;5055664;28;20116;-67
2022/01/17 04:41:35;;;;;;;15.57;2.47;;;;;;;4.51;91.46;103088.91;5056222;28;20447;-66
2022/01/17 04:45:07;;;;;;;16.42;2.35;;;;;;;4.55;90.69;103083.66;5055841;28;20491;-66
2022/01/17 04:46:45;;;;;;;18.60;2.33;;;;;;;4.45;91.75;103085.91;5055485;28;20024;-66
2022/01/17 04:49:11;;;;;;;17.27;3.17;;;;;;;4.43;91.85;103088.56;5055666;28;20376;-66
2022/01/17 04:51:37;;;;;;;17.38;2.83;;;;;;;4.28;92.75;103079.22;5037527;28;20396;-66
2022/01/17 04:54:25;;;;;;;10.27;2.22;;;;;;;4.31;93.01;103089.28;5055558;28;20437;-66
2022/01/17 04:56:48;;;;;;;24.65;3.20;;;;;;;4.38;93.60;103077.78;5055335;28;20120;-65
2022/01/17 04:59:13;;;;;;;13.88;2.53;;;;;;;4.39;93.20;103083.72;5037495;28;20107;-66
2022/01/17 05:01:38;;;;;;;21.13;3.17;;;;;;;4.32;93.23;103090.13;5055597;28;20032;-66
2022/01/17 05:04:04;;;;;;;17.42;3.28;;;;;;;4.35;93.54;103089.94;5055317;28;20527;-66
2022/01/17 05:06:29;;;;;;;20.30;3.80;;;;;;;4.28;92.92;103080.03;5055530;28;20029;-67
2022/01/17 05:08:54;;;;;;;24.38;3.28;;;;;;;4.30;93.58;103092.75;5055223;28;20104;-66
2022/01/17 05:11:24;;;;;;;16.30;3.70;;;;;;;4.30;93.88;103097.88;5037405;28;20392;-66
2022/01/17 05:13:49;;;;;;;17.35;2.80;;;;;;;4.39;94.45;103097.34;5055224;28;20360;-66
2022/01/17 05:16:16;;;;;;;23.70;3.20;;;;;;;4.46;93.83;103115.72;5055107;28;20032;-66
2022/01/17 05:21:07;;;;;;;27.48;3.45;;;;;;;4.42;94.16;103112.50;5054946;28;20029;-66
2022/01/17 05:23:32;;;;;;;20.65;3.70;;;;;;;4.45;93.73;103114.88;5054935;28;20108;-66
2022/01/17 05:25:57;;;;;;;20.10;3.45;;;;;;;4.47;94.20;103107.94;5054852;28;20044;-66
2022/01/17 05:28:23;;;;;;;19.20;3.40;;;;;;;4.52;94.01;103112.81;5037019;28;20544;-66
2022/01/17 05:30:48;;;;;;;20.20;3.40;;;;;;;4.53;94.51;103115.28;5054825;28;20078;-66
2022/01/17 05:33:13;;;;;;;15.75;3.50;;;;;;;4.59;94.51;103103.03;5054729;28;20060;-66
2022/01/17 05:35:39;;;;;;;20.38;3.67;;;;;;;4.49;94.55;103100.19;5054637;28;20078;-66
2022/01/17 05:38:04;;;;;;;18.75;3.33;;;;;;;4.45;95.16;103109.78;5036812;28;20070;-66
2022/01/17 05:40:30;;;;;;;19.10;3.80;;;;;;;4.47;95.54;103097.72;5054535;28;20118;-67
2022/01/17 05:42:55;;;;;;;20.55;4.13;;;;;;;4.43;94.63;103095.41;5055062;28;20028;-66
2022/01/17 05:45:20;;;;;;;22.30;4.30;;;;;;;4.45;95.09;103108.94;5055147;28;20207;-67
2022/01/17 05:47:46;;;;;;;28.48;4.20;;;;;;;4.46;95.02;103110.59;5054511;28;20021;-66
2022/01/17 05:50:13;;;;;;;21.65;4.20;;;;;;;4.43;95.44;103105.66;5054475;28;20021;-66
2022/01/17 05:52:39;;;;;;;16.35;3.42;;;;;;;4.41;95.11;103095.50;5054413;28;20118;-66
2022/01/17 05:55:08;;;;;;;15.07;3.72;;;;;;;4.25;95.18;103051.22;5054348;28;20379;-66
2022/01/17 05:57:33;;;;;;;16.88;5.25;;;;;;;4.50;96.09;103101.84;5054745;28;20024;-66
2022/01/17 06:00:00;;;;;;;24.90;4.78;;;;;;;4.44;95.29;103109.88;5053909;28;20083;-65
2022/01/17 06:02:26;;;;;;;21.52;4.70;;;;;;;4.46;95.70;103123.38;5054221;28;20036;-66
2022/01/17 06:04:51;;;;;;;26.02;4.97;;;;;;;4.47;95.38;103123.31;5054630;28;20025;-65
2022/01/17 06:07:16;;;;;;;23.50;4.65;;;;;;;4.56;95.57;103111.72;5053998;28;20372;-66
2022/01/17 06:09:42;;;;;;;25.02;4.68;;;;;;;4.58;95.66;103119.31;5053846;28;20021;-65
2022/01/17 06:12:07;;;;;;;22.63;5.20;;;;;;;4.66;95.43;103119.66;5054000;28;20020;-66
2022/01/17 06:14:33;;;;;;;24.38;4.78;;;;;;;4.69;95.17;103117.75;5053924;28;20370;-66
2022/01/17 06:16:58;;;;;;;23.23;5.10;;;;;;;4.75;95.26;103121.69;5053907;28;20024;-66
2022/01/17 06:19:23;;;;;;;21.60;5.15;;;;;;;4.73;95.55;103128.66;5054238;28;20108;-66
2022/01/17 06:21:49;;;;;;;19.48;5.18;;;;;;;4.77;95.50;103130.09;5035851;28;20058;-67
2022/01/17 06:24:14;;;;;;;23.20;5.88;;;;;;;4.72;95.27;103140.63;5053724;28;20025;-65
2022/01/17 06:26:41;;;;;;;21.30;5.78;;;;;;;4.63;96.05;103140.34;5035830;28;20048;-66
2022/01/17 06:29:08;;;;;;;23.85;6.40;;;;;;;4.72;95.40;103142.38;5035646;28;20024;-65
2022/01/17 06:31:34;;;;;;;22.98;6.40;;;;;;;4.70;95.25;103126.28;5035506;28;20044;-65
2022/01/17 06:34:00;;;;;;;27.70;6.40;;;;;;;4.64;95.90;103134.31;5035642;28;20017;-65
2022/01/17 06:36:26;;;;;;;25.98;7.20;;;;;;;4.63;95.94;103122.41;5054085;28;20032;-66
2022/01/17 06:38:51;;;;;;;18.17;6.03;;;;;;;4.75;95.93;103122.53;5055731;28;20024;-65
2022/01/17 06:41:17;;;;;;;24.30;7.00;;;;;;;4.60;95.73;103090.13;5052046;28;20456;-67
2022/01/17 06:43:44;;;;;;;26.00;7.30;;;;;;;4.77;95.08;103104.47;5052070;28;20696;-66
2022/01/17 06:46:09;;;;;;;30.13;8.13;;;;;;;4.69;94.88;103109.22;5052107;28;20098;-66
2022/01/17 06:48:34;;;;;;;26.20;8.25;;;;;;;4.70;95.34;103116.84;5052069;28;20056;-66
2022/01/17 06:50:59;;;;;;;20.55;8.13;;;;;;;4.63;95.37;103119.84;5034811;28;20021;-65
2022/01/17 06:53:27;;;;;;;25.05;8.63;;;;;;;4.60;95.80;103130.28;5053314;28;20127;-66
2022/01/17 06:55:53;;;;;;;25.58;8.45;;;;;;;4.63;95.74;103138.63;5052320;28;20108;-66
2022/01/17 06:58:19;;;;;;;25.63;9.15;;;;;;;4.70;95.72;103147.56;5053210;28;20028;-65
2022/01/17 07:00:44;;;;;;;29.38;9.52;;;;;;;4.80;95.91;103164.97;5053122;28;20574;-65
2022/01/17 07:03:11;;;;;;;25.63;8.98;;;;;;;4.85;95.63;103175.78;5035234;28;20472;-66
2022/01/17 07:05:37;;;;;;;30.10;9.68;;;;;;;4.96;95.69;103204.16;5053371;28;20387;-65
2022/01/17 07:08:02;;;;;;;26.48;10.07;;;;;;;5.07;95.06;103212.03;5034594;28;20035;-66
2022/01/17 07:10:28;;;;;;;29.17;9.27;;;;;;;5.09;94.97;103202.50;5053384;28;20430;-65
2022/01/17 07:12:54;;;;;;;27.25;10.02;;;;;;;5.27;94.66;103194.63;5039320;28;20079;-65
2022/01/17 07:15:20;;;;;;;28.23;9.50;;;;;;;5.23;94.67;103193.16;5057621;28;20016;-65
2022/01/17 07:17:45;;;;;;;26.25;9.27;;;;;;;5.27;93.94;103174.13;5057826;28;20029;-65
2022/01/17 07:20:10;;;;;;;27.65;8.57;;;;;;;5.35;93.94;103185.56;5059057;28;20029;-66
2022/01/17 07:22:36;;;;;;;26.80;9.00;;;;;;;5.46;93.34;103179.75;5057635;28;20538;-66
2022/01/17 07:25:01;;;;;;;27.20;8.25;;;;;;;5.46;93.44;103178.94;5057622;28;20032;-66
2022/01/17 07:27:26;;;;;;;25.70;7.60;;;;;;;5.37;93.62;103182.88;5057031;28;20391;-66
2022/01/17 07:29:52;;;;;;;26.13;7.50;;;;;;;5.42;93.89;103189.38;5057015;28;20074;-65
2022/01/17 07:32:17;;;;;;;22.58;6.68;;;;;;;5.49;93.18;103194.13;5057355;28;20498;-66
2022/01/17 07:34:43;;;;;;;20.85;6.03;;;;;;;5.48;93.44;103195.06;5039082;28;20052;-64
2022/01/17 07:37:08;;;;;;;28.30;6.63;;;;;;;5.58;93.04;103201.25;5038893;28;20031;-66
2022/01/17 07:39:33;;;;;;;26.85;5.97;;;;;;;5.66;92.24;103210.13;5056446;28;20017;-66
2022/01/17 07:41:59;;;;;;;21.48;5.18;;;;;;;5.68;91.86;103224.63;5055583;28;20507;-66
2022/01/17 07:44:26;;;;;;;25.35;5.50;;;;;;;5.56;92.17;103178.28;5056167;28;20025;-66
2022/01/17 07:46:57;;;;;;;30.98;5.63;;;;;;;5.78;92.12;103211.13;5038527;28;20017;-66
2022/01/17 07:49:24;;;;;;;13.07;4.68;;;;;;;5.72;91.53;103210.66;5038524;28;20388;-66
2022/01/17 07:51:59;;;;;;;28.08;5.85;;;;;;;5.73;91.48;103212.34;5038120;28;20048;-66
2022/01/17 07:54:25;;;;;;;28.30;5.13;;;;;;;5.50;91.85;103186.34;5055572;28;20047;-65
2022/01/17 07:56:51;;;;;;;25.35;5.13;;;;;;;5.79;91.94;103237.59;5037342;28;20420;-65
2022/01/17 07:59:17;;;;;;;24.40;4.72;;;;;;;5.76;91.43;103228.34;5055750;28;20107;-66
2022/01/17 08:01:42;;;;;;;19.65;4.47;;;;;;;5.86;91.36;103234.53;5038507;28;20124;-66
2022/01/17 08:04:09;;;;;;;26.52;5.20;;;;;;;5.86;91.29;103244.81;5057051;28;20033;-66
2022/01/17 08:06:39;;;;;;;25.13;5.28;;;;;;;5.78;91.34;103239.34;5056447;28;20364;-66
2022/01/17 08:09:17;;;;;;;28.00;4.15;;;;;;;6.01;90.72;103239.66;5057117;28;20410;-66
2022/01/17 08:11:42;;;;;;;26.67;3.92;;;;;;;6.09;91.30;103229.75;5038405;28;20041;-67
2022/01/17 08:14:08;;;;;;;30.02;4.78;;;;;;;6.05;90.53;103221.41;5056139;28;20101;-67
2022/01/17 08:16:33;;;;;;;21.17;4.43;;;;;;;6.08;90.75;103220.41;5056208;28;20029;-67
2022/01/17 08:18:58;;;;;;;24.90;4.60;;;;;;;6.10;90.91;103216.81;5038474;28;20032;-66
2022/01/17 08:21:24;;;;;;;21.15;4.00;;;;;;;6.13;91.28;103226.06;5055459;28;20021;-66
2022/01/17 08:23:52;;;;;;;17.05;4.18;;;;;;;6.18;90.89;103230.91;5038156;28;20071;-66
2022/01/17 08:26:18;;;;;;;19.20;3.97;;;;;;;6.10;91.32;103223.72;5038702;28;20120;-67
2022/01/17 08:28:43;;;;;;;26.95;4.45;;;;;;;6.04;91.79;103226.63;5055517;28;20104;-68
2022/01/17 08:31:09;;;;;;;27.48;4.65;;;;;;;6.16;90.98;103236.16;5055592;28;20025;-66
2022/01/17 08:33:34;;;;;;;23.80;3.97;;;;;;;6.18;90.87;103230.91;5036865;28;20090;-66
2022/01/17 08:36:00;;;;;;;20.88;4.07;;;;;;;6.23;91.39;103231.44;5054810;28;20025;-66
2022/01/17 08:38:28;;;;;;;25.63;3.97;;;;;;;6.23;91.03;103223.72;5037027;28;20166;-67
2022/01/17 08:40:54;;;;;;;22.05;4.10;;;;;;;6.30;91.02;103230.09;5035435;28;20028;-67
2022/01/17 08:43:20;;;;;;;23.52;3.65;;;;;;;6.33;89.97;103227.38;5054567;28;20053;-66
2022/01/17 08:45:48;;;;;;;24.20;4.10;;;;;;;6.35;90.19;103222.94;5054047;28;20064;-67
2022/01/17 08:48:13;;;;;;;25.70;4.78;;;;;;;6.37;90.73;103235.69;5055310;28;20060;-67
2022/01/17 08:50:39;;;;;;;28.48;4.75;;;;;;;6.38;90.48;103230.44;5055369;28;20047;-67
2022/01/17 08:53:05;;;;;;;21.27;3.38;;;;;;;6.25;90.54;103203.91;5037792;28;20048;-68
2022/01/17 08:55:30;;;;;;;28.90;5.13;;;;;;;6.41;90.43;103235.38;5055952;28;20464;-67
2022/01/17 08:57:58;;;;;;;16.70;3.20;;;;;;;6.43;90.45;103238.69;5055441;28;20028;-65
2022/01/17 09:00:25;;;;;;;33.15;4.35;;;;;;;6.51;91.00;103239.00;5055012;28;20032;-65
2022/01/17 09:02:50;;;;;;;18.52;3.55;;;;;;;6.51;90.46;103236.44;5055295;28;20146;-65
2022/01/17 09:05:15;;;;;;;25.80;4.03;;;;;;;6.64;89.77;103244.16;5055005;28;20520;-65
2022/01/17 09:07:41;;;;;;;24.63;4.55;;;;;;;6.75;90.38;103238.31;5055076;28;20025;-65
2022/01/17 09:10:07;;;;;;;23.08;3.83;;;;;;;6.67;90.34;103238.81;5055809;28;20017;-68
2022/01/17 09:12:32;;;;;;;27.80;3.80;;;;;;;6.80;90.30;103240.59;5056797;28;20033;-67
2022/01/17 09:14:59;;;;;;;22.83;4.03;;;;;;;6.71;89.92;103253.13;5055253;28;20078;-66
2022/01/17 09:17:24;;;;;;;37.47;4.22;;;;;;;6.84;89.46;103260.84;5054535;28;20341;-66
2022/01/17 09:19:50;;;;;;;28.08;4.05;;;;;;;6.90;89.89;103265.56;5036674;28;20086;-67
2022/01/17 09:22:16;;;;;;;23.05;4.03;;;;;;;6.97;89.70;103278.84;5035895;28;20112;-67
2022/01/17 09:24:41;;;;;;;23.95;3.50;;;;;;;6.97;89.30;103271.97;5035727;28;20535;-67
2022/01/17 09:27:07;;;;;;;26.83;3.65;;;;;;;7.07;89.27;103285.00;5053322;28;20028;-67
2022/01/17 09:29:33;;;;;;;30.17;4.43;;;;;;;7.16;88.97;103291.28;5035746;28;20425;-67
2022/01/17 09:32:00;;;;;;;29.80;3.72;;;;;;;7.13;89.24;103294.88;5035863;28;20078;-67
2022/01/17 09:34:25;;;;;;;22.85;3.80;;;;;;;7.05;89.63;103293.75;5034268;28;20059;-66
2022/01/17 09:36:52;;;;;;;26.30;3.35;;;;;;;7.14;89.14;103299.13;5054825;28;20029;-67
2022/01/17 09:39:18;;;;;;;25.45;3.58;;;;;;;7.09;89.29;103283.16;5054641;28;20027;-67
2022/01/17 09:41:45;;;;;;;23.52;3.60;;;;;;;7.11;89.97;103296.75;5036692;28;20046;-67
2022/01/17 09:44:11;;;;;;;25.73;4.20;;;;;;;7.27;88.70;103298.28;5036637;28;20395;-67
2022/01/17 09:46:44;;;;;;;26.20;3.75;;;;;;;7.27;88.24;103306.00;5054442;28;20025;-67
2022/01/17 09:54:27;;;;;;;23.02;3.25;;;;;;;7.25;89.26;103306.13;5054056;28;20484;-67
2022/01/17 09:56:58;;;;;;;22.75;3.42;;;;;;;7.32;88.56;103314.25;5053654;28;20437;-67
2022/01/17 09:59:24;;;;;;;25.90;3.30;;;;;;;7.42;87.62;103316.09;5036251;28;20021;-67
2022/01/17 10:01:50;;;;;;;25.85;3.80;;;;;;;7.43;88.21;103322.88;5054177;28;20482;-66
2022/01/17 10:04:19;;;;;;;24.98;4.28;;;;;;;7.39;87.89;103323.19;5036325;28;20025;-67
2022/01/17 10:06:55;;;;;;;26.08;4.15;;;;;;;7.48;87.77;103317.44;5054848;28;20024;-65
2022/01/17 10:09:22;;;;;;;26.83;3.47;;;;;;;7.51;88.03;103319.78;5036249;28;20483;-65
2022/01/17 10:12:09;;;;;;;23.90;3.47;;;;;;;7.66;87.93;103333.34;5054739;28;20028;-67
2022/01/17 10:14:57;;;;;;;22.27;3.50;;;;;;;7.43;87.32;103301.47;5054045;28;20024;-66
2022/01/17 10:17:24;;;;;;;21.13;3.45;;;;;;;7.67;87.33;103346.09;5054000;28;20029;-66
2022/01/17 10:20:02;;;;;;;35.13;3.97;;;;;;;7.65;86.59;103344.56;5036007;28;20029;-66
2022/01/17 10:22:47;;;;;;;28.00;4.75;;;;;;;7.71;87.55;103345.91;5053839;28;20053;-66
2022/01/17 10:26:00;;;;;;;25.65;5.43;;;;;;;7.76;87.74;103339.50;5054052;28;20078;-65
2022/01/17 10:31:21;;;;;;;22.85;3.47;;;;;;;7.63;86.97;103316.38;5055330;28;20025;-69
2022/01/17 10:36:48;;;;;;;22.58;4.22;;;;;;;7.73;85.88;103339.72;5057489;28;20379;-70
2022/01/17 10:39:14;;;;;;;18.00;3.80;;;;;;;7.99;86.63;103363.66;5054181;28;20066;-66
2022/01/17 10:41:39;;;;;;;23.23;3.33;;;;;;;8.03;86.27;103364.28;5053069;28;20112;-67
2022/01/17 10:44:05;;;;;;;30.25;4.70;;;;;;;8.07;85.57;103365.72;5054005;28;20028;-66
2022/01/17 10:46:31;;;;;;;24.67;3.78;;;;;;;8.18;86.32;103355.47;5053588;28;20031;-66
2022/01/17 10:48:57;;;;;;;21.63;3.58;;;;;;;8.22;85.41;103353.50;5035535;28;20078;-66
2022/01/17 10:51:32;;;;;;;27.15;3.50;;;;;;;8.43;84.90;103357.19;5035219;28;20033;-67
2022/01/17 10:53:58;;;;;;;25.65;4.30;;;;;;;8.27;84.47;103336.78;5037131;28;20059;-68
2022/01/17 10:56:25;;;;;;;24.60;3.45;;;;;;;8.28;84.81;103343.59;5053755;28;20025;-68
2022/01/17 10:59:02;;;;;;;22.88;3.90;;;;;;;8.38;83.89;103348.09;5053700;28;20021;-67
2022/01/17 11:01:36;;;;;;;22.80;3.60;;;;;;;8.36;84.14;103358.50;5053329;28;20032;-67
2022/01/17 11:04:08;;;;;;;25.15;3.58;;;;;;;8.52;83.12;103361.66;5035495;28;20128;-68
2022/01/17 11:06:46;;;;;;;24.73;3.42;;;;;;;8.63;82.99;103358.34;5053295;28;20036;-67
2022/01/17 11:09:11;;;;;;;28.23;3.72;;;;;;;8.81;82.43;103364.72;5052212;28;20063;-67
2022/01/17 11:11:38;;;;;;;27.60;4.10;;;;;;;8.80;82.13;103375.13;5052869;28;20479;-68
2022/01/17 11:14:07;;;;;;;24.17;4.50;;;;;;;8.69;82.11;103337.25;5052985;28;20066;-66
2022/01/17 11:16:32;;;;;;;26.58;3.17;;;;;;;8.84;81.97;103373.16;5035472;28;20036;-67
2022/01/17 11:19:10;;;;;;;26.83;3.60;;;;;;;8.91;82.17;103375.16;5053458;28;20032;-66
2022/01/17 11:21:37;;;;;;;23.30;3.55;;;;;;;8.80;81.07;103357.06;5053335;28;20425;-67
2022/01/17 11:24:03;;;;;;;30.48;4.05;;;;;;;9.08;81.54;103386.81;5053052;28;20108;-67
2022/01/17 11:26:28;;;;;;;23.60;3.70;;;;;;;9.07;80.50;103374.06;5053081;28;20129;-67
2022/01/17 11:28:54;;;;;;;22.52;3.17;;;;;;;9.02;81.18;103377.78;5053467;28;20017;-67
2022/01/17 11:31:20;;;;;;;26.45;3.65;;;;;;;9.12;80.94;103380.53;5052984;28;20132;-67
2022/01/17 11:33:49;;;;;;;24.70;3.22;;;;;;;9.17;80.73;103377.59;5053007;28;20021;-66
2022/01/17 11:36:17;;;;;;;19.58;3.10;;;;;;;9.00;81.13;103374.47;5035147;28;20112;-66
2022/01/17 11:38:54;;;;;;;28.15;3.25;;;;;;;8.86;82.09;103372.13;5035526;28;20021;-66
2022/01/17 11:41:30;;;;;;;34.75;5.70;;;;;;;8.86;81.25;103369.56;5053359;28;20029;-66
2022/01/17 11:44:01;;;;;;;22.73;3.20;;;;;;;8.84;82.56;103383.47;5053038;28;20036;-66
2022/01/17 11:46:32;;;;;;;29.80;3.35;;;;;;;8.92;81.66;103397.47;5053462;28;20456;-65
2022/01/17 11:49:06;;;;;;;22.63;3.22;;;;;;;8.94;81.79;103390.41;5053066;28;20475;-66